createdAt,value
2023-12-04T00:00:19.024Z,100428.53
2023-12-04T00:02:47.454Z,100434.50
2023-12-04T00:05:17.435Z,100428.81
2023-12-04T00:07:45.849Z,100421.28
2023-12-04T00:10:14.219Z,100422.22
2023-12-04T00:12:42.705Z,100424.13
2023-12-04T00:15:11.874Z,100424.41
2023-12-04T00:17:41.624Z,100417.91
2023-12-04T00:20:11.296Z,100416.19
2023-12-04T00:22:41.220Z,100426.91
2023-12-04T00:25:10.105Z,100425.69
2023-12-04T00:27:38.615Z,100418.00
2023-12-04T00:30:07.743Z,100430.38
2023-12-04T00:32:36.296Z,100426.13
2023-12-04T00:35:05.003Z,100428.63
2023-12-04T00:37:33.502Z,100432.63
2023-12-04T00:40:04.121Z,100421.91
2023-12-04T00:42:32.624Z,100428.47
2023-12-04T00:45:01.165Z,100426.38
2023-12-04T00:47:29.693Z,100421.78
2023-12-04T00:49:58.294Z,100419.81
2023-12-04T00:52:26.794Z,100429.47
2023-12-04T00:54:55.343Z,100426.78
2023-12-04T00:57:25.339Z,100430.00
2023-12-04T00:59:53.789Z,100435.78
2023-12-04T01:02:22.227Z,100436.72
2023-12-04T01:04:50.757Z,100439.31
2023-12-04T01:07:19.300Z,100436.72
2023-12-04T01:09:47.847Z,100434.03
2023-12-04T01:12:16.351Z,100433.97
2023-12-04T01:14:46.309Z,100431.47
2023-12-04T01:17:14.769Z,100426.63
2023-12-04T01:19:43.347Z,100423.25
2023-12-04T01:22:11.832Z,100420.66
2023-12-04T01:24:40.510Z,100424.16
2023-12-04T01:27:09.349Z,100431.22
2023-12-04T01:29:37.836Z,100431.50
2023-12-04T01:32:08.236Z,100430.19
2023-12-04T01:34:36.789Z,100423.34
2023-12-04T01:37:05.318Z,100427.59
2023-12-04T01:39:33.897Z,100429.16
2023-12-04T01:42:02.391Z,100429.84
2023-12-04T01:44:30.953Z,100426.22
2023-12-04T01:46:59.513Z,100428.47
2023-12-04T01:49:29.721Z,100428.97
2023-12-04T01:51:59.486Z,100429.66
2023-12-04T01:54:28.104Z,100424.66
2023-12-04T01:56:56.919Z,100427.59
2023-12-04T01:59:25.375Z,100421.72
2023-12-04T02:01:54.278Z,100426.03
2023-12-04T02:04:22.923Z,100425.66
2023-12-04T02:06:52.963Z,100431.91
2023-12-04T02:09:21.427Z,100430.16
2023-12-04T02:11:49.901Z,100430.69
2023-12-04T02:14:18.433Z,100422.22
2023-12-04T02:16:47.867Z,100431.13
2023-12-04T02:19:16.901Z,100427.06
2023-12-04T02:21:45.599Z,100429.16
2023-12-04T02:24:15.660Z,100434.69
2023-12-04T02:26:49.664Z,100424.16
2023-12-04T02:29:24.351Z,100425.84
2023-12-04T02:31:54.345Z,100427.41
2023-12-04T02:34:23.495Z,100431.81
2023-12-04T02:36:53.230Z,100429.16
2023-12-04T02:39:23.456Z,100433.97
2023-12-04T02:41:53.200Z,100434.84
2023-12-04T02:44:21.736Z,100432.78
2023-12-04T02:46:50.223Z,100439.84
2023-12-04T02:49:18.812Z,100436.19
2023-12-04T02:51:47.336Z,100441.81
2023-12-04T02:54:15.917Z,100434.88
2023-12-04T02:56:45.792Z,100438.25
2023-12-04T02:59:14.382Z,100430.66
2023-12-04T03:01:42.831Z,100435.50
2023-12-04T03:04:11.600Z,100432.03
2023-12-04T03:06:40.133Z,100423.38
2023-12-04T03:09:09.505Z,100423.22
2023-12-04T03:11:37.948Z,100431.50
2023-12-04T03:14:07.865Z,100428.91
2023-12-04T03:16:36.469Z,100433.22
2023-12-04T03:19:05.003Z,100446.69
2023-12-04T03:21:33.963Z,100445.13
2023-12-04T03:24:02.682Z,100450.31
2023-12-04T03:26:31.210Z,100453.97
2023-12-04T03:28:59.675Z,100452.94
2023-12-04T03:31:29.702Z,100454.19
2023-12-04T03:33:59.149Z,100454.25
2023-12-04T03:36:27.593Z,100453.13
2023-12-04T03:38:56.559Z,100458.31
2023-12-04T03:41:25.168Z,100461.84
2023-12-04T03:43:54.044Z,100455.19
2023-12-04T03:46:22.584Z,100439.41
2023-12-04T03:48:52.695Z,100435.03
2023-12-04T03:51:21.284Z,100449.06
2023-12-04T03:53:50.080Z,100446.56
2023-12-04T03:56:18.654Z,100443.28
2023-12-04T03:58:47.069Z,100450.03
2023-12-04T04:01:15.621Z,100445.19
2023-12-04T04:03:46.343Z,100435.03
2023-12-04T04:06:16.573Z,100433.09
2023-12-04T04:08:45.521Z,100438.63
2023-12-04T04:11:14.289Z,100429.31
2023-12-04T04:13:42.826Z,100427.47
2023-12-04T04:16:15.797Z,100425.41
2023-12-04T04:18:44.615Z,100412.13
2023-12-04T04:21:13.184Z,100417.63
2023-12-04T04:23:43.141Z,100421.78
2023-12-04T04:26:11.721Z,100424.63
2023-12-04T04:28:40.245Z,100422.19
2023-12-04T04:31:09.032Z,100425.84
2023-12-04T04:33:38.085Z,100415.00
2023-12-04T04:36:07.244Z,100430.00
2023-12-04T04:38:35.651Z,100423.94
2023-12-04T04:41:06.027Z,100423.44
2023-12-04T04:43:34.802Z,100425.34
2023-12-04T04:46:03.361Z,100421.00
2023-12-04T04:48:31.945Z,100426.09
2023-12-04T04:51:00.416Z,100418.25
2023-12-04T04:53:28.973Z,100423.25
2023-12-04T04:55:57.404Z,100431.72
2023-12-04T04:58:28.942Z,100425.84
2023-12-04T05:00:57.506Z,100428.28
2023-12-04T05:03:26.053Z,100422.31
2023-12-04T05:05:54.616Z,100432.91
2023-12-04T05:08:23.107Z,100431.00
2023-12-04T05:10:51.656Z,100436.50
2023-12-04T05:13:20.073Z,100437.38
2023-12-04T05:15:50.039Z,100425.66
2023-12-04T05:18:18.484Z,100423.72
2023-12-04T05:20:46.957Z,100431.25
2023-12-04T05:23:15.378Z,100425.66
2023-12-04T05:25:48.272Z,100422.19
2023-12-04T05:28:19.812Z,100422.03
2023-12-04T05:30:49.739Z,100417.19
2023-12-04T05:33:18.291Z,100416.00
2023-12-04T05:35:46.724Z,100409.44
2023-12-04T05:38:15.405Z,100416.19
2023-12-04T05:40:43.742Z,100409.97
2023-12-04T05:43:12.368Z,100422.19
2023-12-04T05:45:41.566Z,100422.19
2023-12-04T05:48:11.710Z,100420.47
2023-12-04T05:50:40.245Z,100415.28
2023-12-04T05:53:08.958Z,100420.28
2023-12-04T05:55:37.453Z,100416.66
2023-12-04T05:58:06.429Z,100424.75
2023-12-04T06:00:34.884Z,100413.00
2023-12-04T06:03:03.467Z,100408.19
2023-12-04T06:05:33.389Z,100413.19
2023-12-04T06:08:01.807Z,100414.22
2023-12-04T06:10:30.242Z,100419.03
2023-12-04T06:12:57.788Z,100416.72
2023-12-04T06:15:26.247Z,100416.34
2023-12-04T06:17:54.778Z,100413.84
2023-12-04T06:20:23.584Z,100414.53
2023-12-04T06:22:53.962Z,100419.38
2023-12-04T06:25:22.833Z,100421.75
2023-12-04T06:27:52.837Z,100420.03
2023-12-04T06:30:22.180Z,100417.94
2023-12-04T06:32:50.926Z,100421.22
2023-12-04T06:35:20.759Z,100430.75
2023-12-04T06:37:51.032Z,100424.53
2023-12-04T06:40:20.880Z,100419.81
2023-12-04T06:42:49.991Z,100422.84
2023-12-04T06:45:18.978Z,100427.63
2023-12-04T06:47:48.760Z,100437.44
2023-12-04T06:50:17.604Z,100439.25
2023-12-04T06:52:46.014Z,100445.13
2023-12-04T06:55:15.062Z,100449.38
2023-12-04T06:57:44.997Z,100446.97
2023-12-04T07:00:21.499Z,100455.41
2023-12-04T07:02:52.794Z,100441.47
2023-12-04T07:05:22.725Z,100456.47
2023-12-04T07:07:51.238Z,100455.69
2023-12-04T07:10:19.917Z,100449.25
2023-12-04T07:12:49.913Z,100456.84
2023-12-04T07:15:18.460Z,100455.50
2023-12-04T07:17:47.081Z,100457.78
2023-12-04T07:20:15.587Z,100450.22
2023-12-04T07:22:43.898Z,100459.41
2023-12-04T07:25:12.848Z,100454.28
2023-12-04T07:27:41.278Z,100460.63
2023-12-04T07:30:12.244Z,100462.13
2023-12-04T07:32:41.208Z,100454.00
2023-12-04T07:35:09.918Z,100459.34
2023-12-04T07:37:38.662Z,100450.72
2023-12-04T07:40:10.023Z,100450.72
2023-12-04T07:42:38.657Z,100456.97
2023-12-04T07:45:07.674Z,100451.94
2023-12-04T07:47:37.620Z,100459.19
2023-12-04T07:50:06.523Z,100457.72
2023-12-04T07:52:34.931Z,100469.13
2023-12-04T07:55:03.581Z,100466.94
2023-12-04T07:57:32.213Z,100462.53
2023-12-04T08:00:00.682Z,100455.50
2023-12-04T08:02:29.295Z,100457.75
2023-12-04T08:04:59.171Z,100456.00
2023-12-04T08:07:27.609Z,100456.34
2023-12-04T08:09:56.159Z,100461.22
2023-12-04T08:12:25.609Z,100454.66
2023-12-04T08:14:54.253Z,100457.63
2023-12-04T08:17:22.612Z,100460.63
2023-12-04T08:19:53.305Z,100450.75
2023-12-04T08:22:23.682Z,100451.53
2023-12-04T08:24:52.800Z,100457.72
2023-12-04T08:27:21.224Z,100453.56
2023-12-04T08:29:49.690Z,100453.75
2023-12-04T08:32:18.098Z,100461.91
2023-12-04T08:34:47.519Z,100461.34
2023-12-04T08:37:16.155Z,100453.56
2023-12-04T08:39:45.946Z,100453.22
2023-12-04T08:42:21.039Z,100453.13
2023-12-04T08:44:52.272Z,100455.78
2023-12-04T08:47:20.717Z,100454.78
2023-12-04T08:53:30.862Z,100453.03
2023-12-04T08:56:01.972Z,100453.44
2023-12-04T08:58:32.669Z,100442.25
2023-12-04T09:01:01.342Z,100436.75
2023-12-04T09:03:32.593Z,100450.41
2023-12-04T09:06:01.764Z,100447.09
2023-12-04T09:08:36.146Z,100446.03
2023-12-04T09:11:18.513Z,100437.72
2023-12-04T09:13:52.466Z,100452.34
2023-12-04T09:16:20.925Z,100436.31
2023-12-04T09:18:49.519Z,100438.22
2023-12-04T09:21:18.271Z,100435.81
2023-12-04T09:23:51.490Z,100438.25
2023-12-04T09:26:21.654Z,100439.91
2023-12-04T09:28:50.817Z,100434.69
2023-12-04T09:31:19.615Z,100436.81
2023-12-04T09:33:48.453Z,100439.81
2023-12-04T09:36:17.069Z,100424.75
2023-12-04T09:38:46.644Z,100424.16
2023-12-04T09:41:15.320Z,100414.50
2023-12-04T09:43:47.083Z,100409.69
2023-12-04T09:46:16.087Z,100405.88
2023-12-04T09:48:45.955Z,100403.75
2023-12-04T09:51:15.355Z,100397.38
2023-12-04T09:53:43.941Z,100395.47
2023-12-04T09:56:14.591Z,100384.63
2023-12-04T09:58:45.427Z,100382.47
2023-12-04T10:01:14.035Z,100383.25
2023-12-04T10:03:42.705Z,100378.06
2023-12-04T10:06:11.316Z,100372.09
2023-12-04T10:08:39.962Z,100363.84
2023-12-04T10:11:08.497Z,100364.53
2023-12-04T10:13:57.147Z,100358.38
2023-12-04T10:16:36.353Z,100357.84
2023-12-04T10:19:16.727Z,100355.44
2023-12-04T10:21:47.564Z,100348.38
2023-12-04T10:24:29.167Z,100339.34
2023-12-04T10:26:59.195Z,100338.03
2023-12-04T10:29:30.440Z,100340.81
2023-12-04T10:32:03.751Z,100338.09
2023-12-04T10:34:35.410Z,100334.16
2023-12-04T10:37:07.468Z,100334.28
2023-12-04T10:39:48.547Z,100326.75
2023-12-04T10:42:26.016Z,100325.25
2023-12-04T10:44:55.035Z,100327.19
2023-12-04T10:47:23.603Z,100323.41
2023-12-04T10:49:52.565Z,100315.47
2023-12-04T10:52:22.994Z,100308.84
2023-12-04T10:54:52.034Z,100301.69
2023-12-04T10:57:24.027Z,100297.84
2023-12-04T10:59:54.577Z,100297.97
2023-12-04T11:02:24.265Z,100299.81
2023-12-04T11:04:54.828Z,100286.91
2023-12-04T11:07:28.878Z,100288.78
2023-12-04T11:09:58.812Z,100287.88
2023-12-04T11:12:28.460Z,100277.47
2023-12-04T11:14:59.812Z,100272.00
2023-12-04T11:17:31.884Z,100274.66
2023-12-04T11:20:03.324Z,100260.53
2023-12-04T11:22:33.988Z,100259.34
2023-12-04T11:25:04.056Z,100248.50
2023-12-04T11:27:34.656Z,100252.22
2023-12-04T11:30:04.806Z,100249.38
2023-12-04T11:32:33.379Z,100244.66
2023-12-04T11:35:04.343Z,100242.63
2023-12-04T11:37:34.911Z,100233.28
2023-12-04T11:40:06.541Z,100228.59
2023-12-04T11:42:35.246Z,100237.00
2023-12-04T11:45:04.151Z,100226.34
2023-12-04T11:47:34.311Z,100223.31
2023-12-04T11:50:02.955Z,100219.94
2023-12-04T11:52:39.812Z,100221.56
2023-12-04T11:55:09.104Z,100213.88
2023-12-04T11:57:38.429Z,100220.53
2023-12-04T12:00:11.347Z,100215.44
2023-12-04T12:03:14.560Z,100212.81
2023-12-04T12:05:30.747Z,100209.06
2023-12-04T12:08:02.211Z,100204.34
2023-12-04T12:10:30.914Z,100211.25
2023-12-04T12:12:59.751Z,100199.41
2023-12-04T12:15:28.554Z,100199.16
2023-12-04T12:17:57.035Z,100189.06
2023-12-04T12:20:26.127Z,100183.66
2023-12-04T12:22:54.795Z,100181.03
2023-12-04T12:25:27.712Z,100172.31
2023-12-04T12:27:57.066Z,100164.53
2023-12-04T12:30:25.524Z,100155.66
2023-12-04T12:32:54.136Z,100147.47
2023-12-04T12:35:24.830Z,100147.53
2023-12-04T12:37:54.917Z,100141.34
2023-12-04T12:40:24.805Z,100139.69
2023-12-04T12:42:53.775Z,100137.06
2023-12-04T12:45:23.455Z,100134.22
2023-12-04T12:47:53.262Z,100127.75
2023-12-04T12:50:22.609Z,100123.94
2023-12-04T12:52:51.537Z,100124.50
2023-12-04T12:55:26.976Z,100123.16
2023-12-04T12:57:58.172Z,100121.03
2023-12-04T13:00:26.932Z,100115.19
2023-12-04T13:02:56.280Z,100119.88
2023-12-04T13:05:24.956Z,100107.25
2023-12-04T13:07:53.459Z,100101.47
2023-12-04T13:10:22.826Z,100104.03
2023-12-04T13:12:56.710Z,100098.56
2023-12-04T13:15:25.828Z,100090.66
2023-12-04T13:17:54.400Z,100100.81
2023-12-04T13:20:25.011Z,100096.22
2023-12-04T13:22:53.411Z,100094.91
2023-12-04T13:25:22.205Z,100092.31
2023-12-04T13:27:51.966Z,100091.31
2023-12-04T13:30:22.457Z,100085.25
2023-12-04T13:32:53.815Z,100082.47
2023-12-04T13:35:23.017Z,100084.91
2023-12-04T13:37:57.074Z,100074.81
2023-12-04T13:40:29.846Z,100069.34
2023-12-04T13:43:08.270Z,100072.28
2023-12-04T13:45:38.725Z,100062.00
2023-12-04T13:48:07.444Z,100064.34
2023-12-04T13:50:36.096Z,100070.06
2023-12-04T13:53:06.614Z,100055.09
2023-12-04T13:55:49.158Z,100051.72
2023-12-04T13:58:31.923Z,100049.16
2023-12-04T14:01:10.656Z,100048.38
2023-12-04T14:03:39.439Z,100038.03
2023-12-04T14:06:08.465Z,100045.72
2023-12-04T14:08:37.264Z,100044.19
2023-12-04T14:11:06.417Z,100031.50
2023-12-04T14:13:35.680Z,100033.94
2023-12-04T14:16:06.612Z,100033.94
2023-12-04T14:18:35.642Z,100022.97
2023-12-04T14:21:04.327Z,100025.44
2023-12-04T14:23:32.937Z,100027.34
2023-12-04T14:26:02.493Z,100027.34
2023-12-04T14:28:39.953Z,100023.06
2023-12-04T14:31:13.472Z,100018.75
2023-12-04T14:33:43.741Z,100022.06
2023-12-04T14:36:14.712Z,100033.69
2023-12-04T14:38:43.346Z,100027.66
2023-12-04T14:41:11.892Z,100022.56
2023-12-04T14:43:40.720Z,100017.59
2023-12-04T14:46:10.971Z,100022.63
2023-12-04T14:48:42.653Z,100018.47
2023-12-04T14:51:11.949Z,100017.50
2023-12-04T14:53:50.703Z,100013.19
2023-12-04T14:56:27.947Z,100020.78
2023-12-04T14:59:07.358Z,100009.88
2023-12-04T15:01:46.010Z,100017.41
2023-12-04T15:04:32.881Z,100023.25
2023-12-04T15:07:30.322Z,100015.78
2023-12-04T15:10:08.996Z,100014.84
2023-12-04T15:12:59.107Z,100009.81
2023-12-04T15:15:41.512Z,99999.84
2023-12-04T15:18:20.272Z,100006.59
2023-12-04T15:20:51.438Z,99996.41
2023-12-04T15:23:20.143Z,99992.97
2023-12-04T15:25:48.683Z,99980.41
2023-12-04T15:28:16.152Z,99982.78
2023-12-04T15:30:45.894Z,99989.53
2023-12-04T15:33:13.839Z,99971.16
2023-12-04T15:35:43.070Z,99966.13
2023-12-04T15:38:11.924Z,99974.63
2023-12-04T15:40:40.637Z,99965.31
2023-12-04T15:43:08.150Z,99970.31
2023-12-04T15:45:36.730Z,99982.94
2023-12-04T15:48:04.648Z,99978.97
2023-12-04T15:50:33.154Z,99980.75
2023-12-04T15:53:01.108Z,99977.50
2023-12-04T15:55:31.760Z,99977.38
2023-12-04T15:57:59.189Z,99978.16
2023-12-04T16:00:27.897Z,99980.06
2023-12-04T16:02:56.909Z,99990.31
2023-12-04T16:05:25.596Z,99988.72
2023-12-04T16:07:54.231Z,99993.75
2023-12-04T16:10:23.206Z,99982.00
2023-12-04T16:12:53.149Z,99976.84
2023-12-04T16:15:21.870Z,99979.22
2023-12-04T16:17:50.465Z,99969.13
2023-12-04T16:20:19.232Z,99972.41
2023-12-04T16:22:47.944Z,99968.25
2023-12-04T16:25:19.495Z,99966.41
2023-12-04T16:27:48.980Z,99966.47
2023-12-04T16:30:20.938Z,99966.41
2023-12-04T16:32:50.420Z,99963.91
2023-12-04T16:35:18.991Z,99960.47
2023-12-04T16:37:47.474Z,99947.03
2023-12-04T16:40:16.378Z,99954.53
2023-12-04T16:42:44.887Z,99953.56
2023-12-04T16:45:31.094Z,99954.38
2023-12-04T16:47:59.708Z,99942.63
2023-12-04T16:50:28.555Z,99952.50
2023-12-04T16:52:57.102Z,99946.66
2023-12-04T16:55:25.804Z,99950.81
2023-12-04T16:57:54.282Z,99950.81
2023-12-04T17:00:22.856Z,99943.22
2023-12-04T17:02:52.851Z,99935.63
2023-12-04T17:05:21.613Z,99933.06
2023-12-04T17:07:50.203Z,99931.47
2023-12-04T17:10:20.174Z,99918.72
2023-12-04T17:12:49.068Z,99923.72
2023-12-04T17:15:17.821Z,99931.91
2023-12-04T17:17:46.467Z,99926.78
2023-12-04T17:20:16.595Z,99920.03
2023-12-04T17:22:45.640Z,99928.47
2023-12-04T17:25:14.069Z,99925.91
2023-12-04T17:27:43.400Z,99928.41
2023-12-04T17:30:12.535Z,99926.63
2023-12-04T17:32:41.083Z,99934.22
2023-12-04T17:35:10.015Z,99935.81
2023-12-04T17:37:39.888Z,99928.38
2023-12-04T17:40:09.379Z,99938.41
2023-12-04T17:42:39.223Z,99931.66
2023-12-04T17:45:09.630Z,99922.47
2023-12-04T17:47:38.552Z,99929.81
2023-12-04T17:50:09.923Z,99926.63
2023-12-04T17:52:42.539Z,99923.22
2023-12-04T17:55:12.285Z,99910.56
2023-12-04T17:57:40.971Z,99919.78
2023-12-04T18:00:16.184Z,99921.41
2023-12-04T18:02:47.163Z,99918.09
2023-12-04T18:05:16.093Z,99908.16
2023-12-04T18:07:46.395Z,99906.41
2023-12-04T18:10:15.058Z,99899.56
2023-12-04T18:12:43.845Z,99885.16
2023-12-04T18:15:13.115Z,99902.84
2023-12-04T18:17:44.590Z,99894.41
2023-12-04T18:20:15.119Z,99897.72
2023-12-04T18:22:43.919Z,99906.03
2023-12-04T18:25:14.659Z,99904.28
2023-12-04T18:27:44.509Z,99901.00
2023-12-04T18:30:15.574Z,99905.16
2023-12-04T18:32:44.451Z,99910.13
2023-12-04T18:35:13.778Z,99912.50
2023-12-04T18:37:46.514Z,99911.56
2023-12-04T18:40:17.613Z,99912.50
2023-12-04T18:42:46.437Z,99907.47
2023-12-04T18:45:15.537Z,99897.44
2023-12-04T18:47:46.106Z,99901.69
2023-12-04T18:50:15.061Z,99899.03
2023-12-04T18:52:48.709Z,99904.91
2023-12-04T18:55:18.528Z,99901.59
2023-12-04T18:57:47.161Z,99909.06
2023-12-04T19:00:16.718Z,99912.50
2023-12-04T19:02:45.488Z,99905.06
2023-12-04T19:05:14.314Z,99898.25
2023-12-04T19:07:43.302Z,99894.94
2023-12-04T19:10:11.782Z,99894.88
2023-12-04T19:12:41.757Z,99893.28
2023-12-04T19:15:12.554Z,99903.38
2023-12-04T19:17:41.135Z,99897.44
2023-12-04T19:20:11.516Z,99894.00
2023-12-04T19:22:40.027Z,99889.78
2023-12-04T19:25:09.063Z,99886.44
2023-12-04T19:27:37.863Z,99877.16
2023-12-04T19:30:09.023Z,99874.66
2023-12-04T19:32:38.259Z,99871.94
2023-12-04T19:35:06.060Z,99871.94
2023-12-04T19:37:35.137Z,99865.22
2023-12-04T19:40:04.617Z,99862.69
2023-12-04T19:42:33.137Z,99861.72
2023-12-04T19:45:01.855Z,99867.53
2023-12-04T19:47:32.150Z,99867.53
2023-12-04T19:50:00.714Z,99869.31
2023-12-04T19:52:29.181Z,99878.56
2023-12-04T19:54:57.712Z,99879.53
2023-12-04T19:57:26.941Z,99882.84
2023-12-04T19:59:56.041Z,99876.97
2023-12-04T20:02:24.670Z,99878.69
2023-12-04T20:04:54.731Z,99882.84
2023-12-04T20:07:23.990Z,99868.66
2023-12-04T20:09:52.432Z,99868.53
2023-12-04T20:12:21.067Z,99854.25
2023-12-04T20:14:51.061Z,99850.03
2023-12-04T20:17:19.521Z,99845.66
2023-12-04T20:19:48.967Z,99848.19
2023-12-04T20:22:19.073Z,99836.44
2023-12-04T20:24:49.201Z,99839.88
2023-12-04T20:27:17.779Z,99829.91
2023-12-04T20:29:47.137Z,99829.13
2023-12-04T20:32:15.918Z,99825.75
2023-12-04T20:34:44.491Z,99824.09
2023-12-04T20:37:12.870Z,99824.25
2023-12-04T20:39:42.718Z,99817.44
2023-12-04T20:42:11.226Z,99807.31
2023-12-04T20:44:39.696Z,99811.59
2023-12-04T20:47:08.184Z,99805.00
2023-12-04T20:49:36.758Z,99797.47
2023-12-04T20:52:07.618Z,99790.09
2023-12-04T20:54:36.209Z,99786.78
2023-12-04T20:57:06.578Z,99784.19
2023-12-04T20:59:35.634Z,99780.06
2023-12-04T21:02:05.036Z,99772.47
2023-12-04T21:04:33.869Z,99765.03
2023-12-04T21:07:03.781Z,99765.03
2023-12-04T21:09:34.150Z,99755.97
2023-12-04T21:12:02.739Z,99755.22
2023-12-04T21:14:32.565Z,99745.97
2023-12-04T21:17:01.937Z,99740.03
2023-12-04T21:19:30.704Z,99730.00
2023-12-04T21:21:59.468Z,99724.13
2023-12-04T21:24:28.015Z,99727.50
2023-12-04T21:26:56.462Z,99723.25
2023-12-04T21:29:25.833Z,99724.06
2023-12-04T21:31:55.775Z,99706.50
2023-12-04T21:34:24.328Z,99714.97
2023-12-04T21:36:52.977Z,99713.50
2023-12-04T21:39:21.661Z,99718.59
2023-12-04T21:41:50.154Z,99705.16
2023-12-04T21:44:18.651Z,99710.91
2023-12-04T21:46:47.222Z,99710.16
2023-12-04T21:49:17.368Z,99706.06
2023-12-04T21:51:46.015Z,99708.47
2023-12-04T21:54:14.865Z,99708.53
2023-12-04T21:56:43.374Z,99701.88
2023-12-04T21:59:29.338Z,99696.72
2023-12-04T22:01:59.519Z,99691.81
2023-12-04T22:04:30.029Z,99680.97
2023-12-04T22:06:58.755Z,99691.81
2023-12-04T22:09:27.296Z,99674.22
2023-12-04T22:11:55.917Z,99681.66
2023-12-04T22:14:25.293Z,99685.81
2023-12-04T22:16:53.837Z,99672.34
2023-12-04T22:19:22.844Z,99665.75
2023-12-04T22:21:53.377Z,99662.44
2023-12-04T22:24:21.928Z,99659.94
2023-12-04T22:26:50.470Z,99656.69
2023-12-04T22:29:19.046Z,99655.09
2023-12-04T22:31:48.696Z,99656.81
2023-12-04T22:34:17.443Z,99645.94
2023-12-04T22:36:45.953Z,99648.47
2023-12-04T22:39:17.112Z,99652.78
2023-12-04T22:41:46.803Z,99658.66
2023-12-04T22:44:15.242Z,99668.81
2023-12-04T22:46:43.931Z,99656.19
2023-12-04T22:49:12.524Z,99652.94
2023-12-04T22:51:41.238Z,99648.75
2023-12-04T22:54:09.662Z,99635.38
2023-12-04T22:56:39.635Z,99637.03
2023-12-04T22:59:08.132Z,99633.56
2023-12-04T23:01:36.740Z,99624.31
2023-12-04T23:04:05.423Z,99620.09
2023-12-04T23:06:34.352Z,99616.59
2023-12-04T23:09:03.135Z,99607.44
2023-12-04T23:11:44.913Z,99613.22
2023-12-04T23:14:13.583Z,99603.19
2023-12-04T23:16:43.564Z,99608.22
2023-12-04T23:19:12.570Z,99593.97
2023-12-04T23:21:41.144Z,99595.56
2023-12-04T23:24:10.134Z,99606.38
2023-12-04T23:26:38.653Z,99598.09
2023-12-04T23:29:08.796Z,99600.59
2023-12-04T23:31:37.322Z,99593.06
2023-12-04T23:34:06.210Z,99593.72
2023-12-04T23:36:34.872Z,99579.34
2023-12-04T23:39:03.690Z,99597.72
2023-12-04T23:41:32.170Z,99592.72
2023-12-04T23:44:02.503Z,99587.69
2023-12-04T23:46:32.472Z,99587.78
2023-12-04T23:49:01.025Z,99583.50
2023-12-04T23:51:29.596Z,99590.19
2023-12-04T23:53:58.538Z,99580.81
2023-12-04T23:56:27.904Z,99587.44
2023-12-04T23:58:56.794Z,99579.13
